sensor_id;sensor_type;location;lat;lon;timestamp;P1;durP1;ratioP1;P2;durP2;ratioP2
21352;SDS011;10834;52.268;6.770;2023-06-14T00:00:58;4.05;;;2.70;;
21352;SDS011;10834;52.268;6.770;2023-06-14T00:03:44;7.57;;;2.80;;
21352;SDS011;10834;52.268;6.770;2023-06-14T00:06:30;7.13;;;2.15;;
21352;SDS011;10834;52.268;6.770;2023-06-14T00:09:16;7.88;;;2.70;;
21352;SDS011;10834;52.268;6.770;2023-06-14T00:12:05;3.25;;;2.28;;
21352;SDS011;10834;52.268;6.770;2023-06-14T00:14:51;2.42;;;2.22;;
21352;SDS011;10834;52.268;6.770;2023-06-14T00:17:37;5.18;;;2.55;;
21352;SDS011;10834;52.268;6.770;2023-06-14T00:20:24;7.00;;;2.20;;
21352;SDS011;10834;52.268;6.770;2023-06-14T00:23:11;4.63;;;2.17;;
21352;SDS011;10834;52.268;6.770;2023-06-14T00:25:57;4.05;;;2.40;;
21352;SDS011;10834;52.268;6.770;2023-06-14T00:28:43;4.20;;;2.25;;
21352;SDS011;10834;52.268;6.770;2023-06-14T00:31:29;4.82;;;2.55;;
21352;SDS011;10834;52.268;6.770;2023-06-14T00:34:16;5.00;;;2.20;;
21352;SDS011;10834;52.268;6.770;2023-06-14T00:37:02;2.65;;;1.88;;
21352;SDS011;10834;52.268;6.770;2023-06-14T00:39:48;3.17;;;1.95;;
21352;SDS011;10834;52.268;6.770;2023-06-14T00:42:34;7.05;;;2.88;;
21352;SDS011;10834;52.268;6.770;2023-06-14T00:45:20;4.20;;;2.10;;
21352;SDS011;10834;52.268;6.770;2023-06-14T00:48:06;2.88;;;2.17;;
21352;SDS011;10834;52.268;6.770;2023-06-14T00:50:54;2.60;;;2.40;;
21352;SDS011;10834;52.268;6.770;2023-06-14T00:53:41;4.45;;;1.88;;
21352;SDS011;10834;52.268;6.770;2023-06-14T00:56:31;2.90;;;1.75;;
21352;SDS011;10834;52.268;6.770;2023-06-14T00:59:17;5.20;;;2.33;;
21352;SDS011;10834;52.268;6.770;2023-06-14T01:02:04;4.70;;;2.05;;
21352;SDS011;10834;52.268;6.770;2023-06-14T01:04:50;4.75;;;2.35;;
21352;SDS011;10834;52.268;6.770;2023-06-14T01:10:53;5.13;;;2.30;;
21352;SDS011;10834;52.268;6.770;2023-06-14T01:13:47;4.50;;;2.35;;
21352;SDS011;10834;52.268;6.770;2023-06-14T01:16:34;2.28;;;1.75;;
21352;SDS011;10834;52.268;6.770;2023-06-14T01:19:21;6.93;;;1.98;;
21352;SDS011;10834;52.268;6.770;2023-06-14T01:22:11;4.85;;;2.15;;
21352;SDS011;10834;52.268;6.770;2023-06-14T01:24:57;3.33;;;1.90;;
21352;SDS011;10834;52.268;6.770;2023-06-14T01:27:43;4.90;;;2.10;;
21352;SDS011;10834;52.268;6.770;2023-06-14T01:30:29;3.20;;;2.15;;
21352;SDS011;10834;52.268;6.770;2023-06-14T01:33:19;5.25;;;2.17;;
21352;SDS011;10834;52.268;6.770;2023-06-14T01:36:10;5.13;;;2.47;;
21352;SDS011;10834;52.268;6.770;2023-06-14T01:38:58;3.75;;;2.28;;
21352;SDS011;10834;52.268;6.770;2023-06-14T01:41:45;5.78;;;2.20;;
21352;SDS011;10834;52.268;6.770;2023-06-14T01:44:32;5.68;;;1.90;;
21352;SDS011;10834;52.268;6.770;2023-06-14T01:47:18;5.22;;;2.08;;
21352;SDS011;10834;52.268;6.770;2023-06-14T01:50:05;3.22;;;1.95;;
21352;SDS011;10834;52.268;6.770;2023-06-14T01:52:51;6.32;;;2.13;;
21352;SDS011;10834;52.268;6.770;2023-06-14T01:55:37;4.97;;;1.98;;
21352;SDS011;10834;52.268;6.770;2023-06-14T01:58:23;4.40;;;2.08;;
21352;SDS011;10834;52.268;6.770;2023-06-14T02:01:09;3.83;;;2.30;;
21352;SDS011;10834;52.268;6.770;2023-06-14T02:03:57;6.10;;;2.28;;
21352;SDS011;10834;52.268;6.770;2023-06-14T02:06:43;4.40;;;2.40;;
21352;SDS011;10834;52.268;6.770;2023-06-14T02:09:29;8.73;;;2.40;;
21352;SDS011;10834;52.268;6.770;2023-06-14T02:12:15;3.03;;;2.00;;
21352;SDS011;10834;52.268;6.770;2023-06-14T02:15:01;2.92;;;1.95;;
21352;SDS011;10834;52.268;6.770;2023-06-14T02:17:49;4.90;;;2.42;;
21352;SDS011;10834;52.268;6.770;2023-06-14T02:20:35;3.70;;;2.00;;
21352;SDS011;10834;52.268;6.770;2023-06-14T02:23:21;2.33;;;1.77;;
21352;SDS011;10834;52.268;6.770;2023-06-14T02:26:07;5.63;;;2.00;;
21352;SDS011;10834;52.268;6.770;2023-06-14T02:28:53;6.13;;;2.33;;
21352;SDS011;10834;52.268;6.770;2023-06-14T02:31:40;7.13;;;2.10;;
21352;SDS011;10834;52.268;6.770;2023-06-14T02:34:26;3.78;;;2.30;;
21352;SDS011;10834;52.268;6.770;2023-06-14T02:37:12;6.07;;;2.17;;
21352;SDS011;10834;52.268;6.770;2023-06-14T02:39:58;2.65;;;2.03;;
21352;SDS011;10834;52.268;6.770;2023-06-14T02:42:44;5.47;;;2.15;;
21352;SDS011;10834;52.268;6.770;2023-06-14T02:45:30;5.05;;;1.95;;
21352;SDS011;10834;52.268;6.770;2023-06-14T02:48:16;2.55;;;1.77;;
21352;SDS011;10834;52.268;6.770;2023-06-14T02:51:02;2.83;;;1.85;;
21352;SDS011;10834;52.268;6.770;2023-06-14T02:53:48;3.60;;;2.03;;
21352;SDS011;10834;52.268;6.770;2023-06-14T02:56:35;2.05;;;1.85;;
21352;SDS011;10834;52.268;6.770;2023-06-14T02:59:21;5.07;;;1.88;;
21352;SDS011;10834;52.268;6.770;2023-06-14T03:02:10;4.20;;;2.28;;
21352;SDS011;10834;52.268;6.770;2023-06-14T03:04:56;6.97;;;2.17;;
21352;SDS011;10834;52.268;6.770;2023-06-14T03:07:46;8.50;;;2.88;;
21352;SDS011;10834;52.268;6.770;2023-06-14T03:10:32;3.28;;;2.33;;
21352;SDS011;10834;52.268;6.770;2023-06-14T03:13:18;3.90;;;1.90;;
21352;SDS011;10834;52.268;6.770;2023-06-14T03:16:07;2.50;;;1.92;;
21352;SDS011;10834;52.268;6.770;2023-06-14T03:18:54;4.93;;;2.13;;
21352;SDS011;10834;52.268;6.770;2023-06-14T03:21:40;7.10;;;2.45;;
21352;SDS011;10834;52.268;6.770;2023-06-14T03:24:29;2.75;;;1.80;;
21352;SDS011;10834;52.268;6.770;2023-06-14T03:27:21;3.33;;;1.90;;
21352;SDS011;10834;52.268;6.770;2023-06-14T03:30:08;3.33;;;2.30;;
21352;SDS011;10834;52.268;6.770;2023-06-14T03:32:54;3.05;;;2.28;;
21352;SDS011;10834;52.268;6.770;2023-06-14T03:35:41;4.15;;;2.05;;
21352;SDS011;10834;52.268;6.770;2023-06-14T03:38:27;3.58;;;2.15;;
21352;SDS011;10834;52.268;6.770;2023-06-14T03:41:13;7.55;;;2.80;;
21352;SDS011;10834;52.268;6.770;2023-06-14T03:43:59;3.45;;;2.30;;
21352;SDS011;10834;52.268;6.770;2023-06-14T03:46:45;1.92;;;1.77;;
21352;SDS011;10834;52.268;6.770;2023-06-14T03:49:31;2.92;;;2.40;;
21352;SDS011;10834;52.268;6.770;2023-06-14T03:52:17;4.45;;;1.90;;
21352;SDS011;10834;52.268;6.770;2023-06-14T03:55:04;3.85;;;2.45;;
21352;SDS011;10834;52.268;6.770;2023-06-14T03:57:53;3.53;;;2.30;;
21352;SDS011;10834;52.268;6.770;2023-06-14T04:00:39;4.47;;;2.42;;
21352;SDS011;10834;52.268;6.770;2023-06-14T04:03:25;2.03;;;1.80;;
21352;SDS011;10834;52.268;6.770;2023-06-14T04:06:14;2.88;;;2.20;;
21352;SDS011;10834;52.268;6.770;2023-06-14T04:09:04;4.38;;;2.13;;
21352;SDS011;10834;52.268;6.770;2023-06-14T04:11:51;3.45;;;2.10;;
21352;SDS011;10834;52.268;6.770;2023-06-14T04:14:38;4.88;;;2.13;;
21352;SDS011;10834;52.268;6.770;2023-06-14T04:17:25;4.45;;;2.25;;
21352;SDS011;10834;52.268;6.770;2023-06-14T04:20:11;5.35;;;2.00;;
21352;SDS011;10834;52.268;6.770;2023-06-14T04:23:10;2.85;;;2.08;;
21352;SDS011;10834;52.268;6.770;2023-06-14T04:25:58;2.65;;;2.40;;
21352;SDS011;10834;52.268;6.770;2023-06-14T04:28:47;4.43;;;2.85;;
21352;SDS011;10834;52.268;6.770;2023-06-14T04:31:35;3.53;;;2.13;;
21352;SDS011;10834;52.268;6.770;2023-06-14T04:34:28;3.63;;;2.17;;
21352;SDS011;10834;52.268;6.770;2023-06-14T04:37:19;4.05;;;2.40;;
21352;SDS011;10834;52.268;6.770;2023-06-14T04:40:09;2.50;;;2.30;;
21352;SDS011;10834;52.268;6.770;2023-06-14T04:42:55;4.10;;;2.55;;
21352;SDS011;10834;52.268;6.770;2023-06-14T04:45:42;7.72;;;2.47;;
21352;SDS011;10834;52.268;6.770;2023-06-14T04:48:31;8.00;;;3.55;;
21352;SDS011;10834;52.268;6.770;2023-06-14T04:51:17;3.17;;;2.35;;
21352;SDS011;10834;52.268;6.770;2023-06-14T04:54:06;4.75;;;2.47;;
21352;SDS011;10834;52.268;6.770;2023-06-14T04:56:55;4.38;;;2.25;;
21352;SDS011;10834;52.268;6.770;2023-06-14T04:59:42;4.38;;;2.28;;
21352;SDS011;10834;52.268;6.770;2023-06-14T05:02:29;7.97;;;2.35;;
21352;SDS011;10834;52.268;6.770;2023-06-14T05:05:16;3.33;;;2.45;;
21352;SDS011;10834;52.268;6.770;2023-06-14T05:08:02;3.67;;;2.65;;
21352;SDS011;10834;52.268;6.770;2023-06-14T05:10:49;2.95;;;2.00;;
21352;SDS011;10834;52.268;6.770;2023-06-14T05:13:35;4.20;;;2.55;;
21352;SDS011;10834;52.268;6.770;2023-06-14T05:16:21;2.63;;;2.35;;
21352;SDS011;10834;52.268;6.770;2023-06-14T05:19:08;3.95;;;2.30;;
21352;SDS011;10834;52.268;6.770;2023-06-14T05:21:55;5.05;;;2.47;;
21352;SDS011;10834;52.268;6.770;2023-06-14T05:24:41;3.50;;;2.55;;
21352;SDS011;10834;52.268;6.770;2023-06-14T05:27:27;2.30;;;2.03;;
21352;SDS011;10834;52.268;6.770;2023-06-14T05:30:14;2.10;;;1.85;;
21352;SDS011;10834;52.268;6.770;2023-06-14T05:33:00;4.97;;;2.33;;
21352;SDS011;10834;52.268;6.770;2023-06-14T05:35:46;6.70;;;2.40;;
21352;SDS011;10834;52.268;6.770;2023-06-14T05:38:32;2.83;;;2.47;;
21352;SDS011;10834;52.268;6.770;2023-06-14T05:41:19;2.78;;;2.20;;
21352;SDS011;10834;52.268;6.770;2023-06-14T05:44:06;3.85;;;2.17;;
21352;SDS011;10834;52.268;6.770;2023-06-14T05:46:53;5.90;;;2.00;;
21352;SDS011;10834;52.268;6.770;2023-06-14T05:49:39;6.47;;;2.05;;
21352;SDS011;10834;52.268;6.770;2023-06-14T05:52:25;4.13;;;2.53;;
21352;SDS011;10834;52.268;6.770;2023-06-14T05:55:11;3.10;;;2.15;;
21352;SDS011;10834;52.268;6.770;2023-06-14T05:57:58;4.60;;;2.47;;
21352;SDS011;10834;52.268;6.770;2023-06-14T06:00:45;4.03;;;1.88;;
21352;SDS011;10834;52.268;6.770;2023-06-14T06:03:31;6.78;;;2.15;;
21352;SDS011;10834;52.268;6.770;2023-06-14T06:06:18;3.78;;;2.10;;
21352;SDS011;10834;52.268;6.770;2023-06-14T06:09:04;5.18;;;2.20;;
21352;SDS011;10834;52.268;6.770;2023-06-14T06:11:50;2.95;;;1.90;;
21352;SDS011;10834;52.268;6.770;2023-06-14T06:14:36;5.00;;;2.65;;
21352;SDS011;10834;52.268;6.770;2023-06-14T06:17:22;7.10;;;1.92;;
21352;SDS011;10834;52.268;6.770;2023-06-14T06:20:08;5.45;;;2.10;;
21352;SDS011;10834;52.268;6.770;2023-06-14T06:22:55;2.85;;;1.95;;
21352;SDS011;10834;52.268;6.770;2023-06-14T06:25:42;2.70;;;1.90;;
21352;SDS011;10834;52.268;6.770;2023-06-14T06:28:28;2.47;;;2.28;;
21352;SDS011;10834;52.268;6.770;2023-06-14T06:31:14;3.22;;;2.00;;
21352;SDS011;10834;52.268;6.770;2023-06-14T06:34:00;4.57;;;2.03;;
21352;SDS011;10834;52.268;6.770;2023-06-14T06:36:46;2.22;;;2.03;;
21352;SDS011;10834;52.268;6.770;2023-06-14T06:39:33;2.30;;;1.98;;
21352;SDS011;10834;52.268;6.770;2023-06-14T06:42:19;3.08;;;1.98;;
21352;SDS011;10834;52.268;6.770;2023-06-14T06:45:05;4.65;;;1.85;;
21352;SDS011;10834;52.268;6.770;2023-06-14T06:47:51;2.03;;;1.50;;
21352;SDS011;10834;52.268;6.770;2023-06-14T06:50:37;5.85;;;1.85;;
21352;SDS011;10834;52.268;6.770;2023-06-14T06:53:24;1.70;;;1.60;;
21352;SDS011;10834;52.268;6.770;2023-06-14T06:56:11;1.70;;;1.58;;
21352;SDS011;10834;52.268;6.770;2023-06-14T06:58:57;3.30;;;2.03;;
21352;SDS011;10834;52.268;6.770;2023-06-14T07:01:43;3.50;;;1.88;;
21352;SDS011;10834;52.268;6.770;2023-06-14T07:04:29;6.07;;;1.90;;
21352;SDS011;10834;52.268;6.770;2023-06-14T07:07:17;3.45;;;2.22;;
21352;SDS011;10834;52.268;6.770;2023-06-14T07:10:03;3.40;;;1.80;;
21352;SDS011;10834;52.268;6.770;2023-06-14T07:12:50;2.67;;;2.42;;
21352;SDS011;10834;52.268;6.770;2023-06-14T07:15:36;3.47;;;1.67;;
21352;SDS011;10834;52.268;6.770;2023-06-14T07:18:22;2.75;;;1.75;;
21352;SDS011;10834;52.268;6.770;2023-06-14T07:21:08;1.92;;;1.70;;
21352;SDS011;10834;52.268;6.770;2023-06-14T07:23:55;9.23;;;2.70;;
21352;SDS011;10834;52.268;6.770;2023-06-14T07:26:41;3.30;;;1.83;;
21352;SDS011;10834;52.268;6.770;2023-06-14T07:29:27;1.85;;;1.75;;
21352;SDS011;10834;52.268;6.770;2023-06-14T07:32:13;3.78;;;1.98;;
21352;SDS011;10834;52.268;6.770;2023-06-14T07:34:59;3.35;;;2.00;;
21352;SDS011;10834;52.268;6.770;2023-06-14T07:37:45;3.33;;;1.70;;
21352;SDS011;10834;52.268;6.770;2023-06-14T07:40:32;7.70;;;1.80;;
21352;SDS011;10834;52.268;6.770;2023-06-14T07:43:18;6.60;;;2.20;;
21352;SDS011;10834;52.268;6.770;2023-06-14T07:46:04;3.33;;;2.10;;
21352;SDS011;10834;52.268;6.770;2023-06-14T07:48:51;9.77;;;2.20;;
21352;SDS011;10834;52.268;6.770;2023-06-14T07:51:37;2.58;;;1.60;;
21352;SDS011;10834;52.268;6.770;2023-06-14T07:54:23;8.02;;;2.95;;
21352;SDS011;10834;52.268;6.770;2023-06-14T07:57:11;3.95;;;2.20;;
21352;SDS011;10834;52.268;6.770;2023-06-14T07:59:57;2.03;;;1.92;;
21352;SDS011;10834;52.268;6.770;2023-06-14T08:02:44;4.97;;;1.90;;
21352;SDS011;10834;52.268;6.770;2023-06-14T08:05:30;2.08;;;1.95;;
21352;SDS011;10834;52.268;6.770;2023-06-14T08:08:16;3.80;;;1.88;;
21352;SDS011;10834;52.268;6.770;2023-06-14T08:11:02;3.40;;;2.10;;
21352;SDS011;10834;52.268;6.770;2023-06-14T08:13:48;2.92;;;1.90;;
21352;SDS011;10834;52.268;6.770;2023-06-14T08:16:35;4.53;;;1.98;;
21352;SDS011;10834;52.268;6.770;2023-06-14T08:19:21;1.90;;;1.80;;
21352;SDS011;10834;52.268;6.770;2023-06-14T08:22:07;2.42;;;1.75;;
21352;SDS011;10834;52.268;6.770;2023-06-14T08:24:57;2.22;;;2.08;;
21352;SDS011;10834;52.268;6.770;2023-06-14T08:27:43;1.98;;;1.35;;
21352;SDS011;10834;52.268;6.770;2023-06-14T08:30:29;4.95;;;1.77;;
21352;SDS011;10834;52.268;6.770;2023-06-14T08:33:15;3.50;;;1.60;;
21352;SDS011;10834;52.268;6.770;2023-06-14T08:36:01;1.85;;;1.75;;
21352;SDS011;10834;52.268;6.770;2023-06-14T08:38:47;1.63;;;1.50;;
21352;SDS011;10834;52.268;6.770;2023-06-14T08:41:33;9.13;;;2.42;;
21352;SDS011;10834;52.268;6.770;2023-06-14T08:44:21;2.80;;;1.88;;
21352;SDS011;10834;52.268;6.770;2023-06-14T08:47:07;2.72;;;1.50;;
21352;SDS011;10834;52.268;6.770;2023-06-14T08:49:55;2.47;;;1.75;;
21352;SDS011;10834;52.268;6.770;2023-06-14T08:52:44;2.08;;;1.40;;
21352;SDS011;10834;52.268;6.770;2023-06-14T08:55:35;3.17;;;1.80;;
21352;SDS011;10834;52.268;6.770;2023-06-14T08:58:25;2.75;;;1.50;;
21352;SDS011;10834;52.268;6.770;2023-06-14T09:01:11;2.67;;;1.92;;
21352;SDS011;10834;52.268;6.770;2023-06-14T09:04:02;4.60;;;1.95;;
21352;SDS011;10834;52.268;6.770;2023-06-14T09:06:50;6.47;;;2.00;;
21352;SDS011;10834;52.268;6.770;2023-06-14T09:09:39;1.90;;;1.80;;
21352;SDS011;10834;52.268;6.770;2023-06-14T09:12:28;4.35;;;2.05;;
21352;SDS011;10834;52.268;6.770;2023-06-14T09:15:16;4.85;;;1.80;;
21352;SDS011;10834;52.268;6.770;2023-06-14T09:18:03;2.05;;;1.77;;
21352;SDS011;10834;52.268;6.770;2023-06-14T09:20:49;2.58;;;1.52;;
21352;SDS011;10834;52.268;6.770;2023-06-14T09:23:39;3.20;;;1.95;;
21352;SDS011;10834;52.268;6.770;2023-06-14T09:26:31;7.20;;;2.10;;
21352;SDS011;10834;52.268;6.770;2023-06-14T09:29:20;3.25;;;1.92;;
21352;SDS011;10834;52.268;6.770;2023-06-14T09:32:06;3.70;;;2.08;;
21352;SDS011;10834;52.268;6.770;2023-06-14T09:34:52;2.90;;;1.90;;
21352;SDS011;10834;52.268;6.770;2023-06-14T09:37:38;4.93;;;2.10;;
21352;SDS011;10834;52.268;6.770;2023-06-14T09:40:25;3.13;;;2.38;;
21352;SDS011;10834;52.268;6.770;2023-06-14T09:43:11;2.08;;;1.98;;
21352;SDS011;10834;52.268;6.770;2023-06-14T09:45:58;2.13;;;1.92;;
21352;SDS011;10834;52.268;6.770;2023-06-14T09:48:44;3.30;;;2.10;;
21352;SDS011;10834;52.268;6.770;2023-06-14T09:51:30;5.07;;;1.90;;
21352;SDS011;10834;52.268;6.770;2023-06-14T09:54:18;3.92;;;2.10;;
21352;SDS011;10834;52.268;6.770;2023-06-14T09:57:08;2.03;;;1.83;;
21352;SDS011;10834;52.268;6.770;2023-06-14T09:59:57;2.22;;;2.03;;
21352;SDS011;10834;52.268;6.770;2023-06-14T10:02:47;3.85;;;2.03;;
21352;SDS011;10834;52.268;6.770;2023-06-14T10:05:39;2.15;;;2.05;;
21352;SDS011;10834;52.268;6.770;2023-06-14T10:08:30;2.22;;;2.03;;
21352;SDS011;10834;52.268;6.770;2023-06-14T10:11:19;2.53;;;1.75;;
21352;SDS011;10834;52.268;6.770;2023-06-14T10:14:05;2.80;;;2.05;;
21352;SDS011;10834;52.268;6.770;2023-06-14T10:19:50;1.75;;;1.63;;
21352;SDS011;10834;52.268;6.770;2023-06-14T10:22:45;10.85;;;2.22;;
21352;SDS011;10834;52.268;6.770;2023-06-14T10:25:36;4.97;;;1.98;;
21352;SDS011;10834;52.268;6.770;2023-06-14T10:28:22;4.40;;;1.90;;
21352;SDS011;10834;52.268;6.770;2023-06-14T10:31:10;6.43;;;3.22;;
21352;SDS011;10834;52.268;6.770;2023-06-14T10:33:59;8.68;;;1.83;;
21352;SDS011;10834;52.268;6.770;2023-06-14T10:36:45;1.80;;;1.70;;
21352;SDS011;10834;52.268;6.770;2023-06-14T10:39:32;4.78;;;2.22;;
21352;SDS011;10834;52.268;6.770;2023-06-14T10:42:28;1.60;;;1.50;;
21352;SDS011;10834;52.268;6.770;2023-06-14T10:45:17;2.67;;;1.98;;
21352;SDS011;10834;52.268;6.770;2023-06-14T10:48:03;3.20;;;1.73;;
21352;SDS011;10834;52.268;6.770;2023-06-14T10:50:49;4.55;;;1.75;;
21352;SDS011;10834;52.268;6.770;2023-06-14T10:53:47;5.43;;;2.10;;
21352;SDS011;10834;52.268;6.770;2023-06-14T10:56:34;4.45;;;1.85;;
21352;SDS011;10834;52.268;6.770;2023-06-14T10:59:20;3.45;;;2.17;;
21352;SDS011;10834;52.268;6.770;2023-06-14T11:05:05;3.80;;;1.92;;
21352;SDS011;10834;52.268;6.770;2023-06-14T11:11:05;5.32;;;1.48;;
21352;SDS011;10834;52.268;6.770;2023-06-14T11:13:52;1.90;;;1.73;;
21352;SDS011;10834;52.268;6.770;2023-06-14T11:16:38;3.45;;;1.88;;
21352;SDS011;10834;52.268;6.770;2023-06-14T11:19:24;4.28;;;1.75;;
21352;SDS011;10834;52.268;6.770;2023-06-14T11:22:14;4.10;;;1.75;;
21352;SDS011;10834;52.268;6.770;2023-06-14T11:25:01;4.32;;;1.58;;
21352;SDS011;10834;52.268;6.770;2023-06-14T11:27:49;2.40;;;1.80;;
21352;SDS011;10834;52.268;6.770;2023-06-14T11:30:36;3.28;;;1.65;;
21352;SDS011;10834;52.268;6.770;2023-06-14T11:33:22;1.45;;;1.35;;
21352;SDS011;10834;52.268;6.770;2023-06-14T11:36:09;2.63;;;1.45;;
21352;SDS011;10834;52.268;6.770;2023-06-14T11:38:59;3.92;;;1.77;;
21352;SDS011;10834;52.268;6.770;2023-06-14T11:41:52;4.57;;;1.60;;
21352;SDS011;10834;52.268;6.770;2023-06-14T11:44:38;1.50;;;1.40;;
21352;SDS011;10834;52.268;6.770;2023-06-14T11:47:24;4.97;;;1.50;;
21352;SDS011;10834;52.268;6.770;2023-06-14T11:50:10;2.20;;;1.15;;
21352;SDS011;10834;52.268;6.770;2023-06-14T11:52:57;2.05;;;1.38;;
21352;SDS011;10834;52.268;6.770;2023-06-14T11:55:55;2.50;;;1.30;;
21352;SDS011;10834;52.268;6.770;2023-06-14T11:58:43;2.22;;;1.10;;
21352;SDS011;10834;52.268;6.770;2023-06-14T12:01:29;3.20;;;1.20;;
21352;SDS011;10834;52.268;6.770;2023-06-14T12:04:23;1.88;;;1.20;;
21352;SDS011;10834;52.268;6.770;2023-06-14T12:07:12;4.18;;;1.23;;
21352;SDS011;10834;52.268;6.770;2023-06-14T12:10:06;3.20;;;1.20;;
21352;SDS011;10834;52.268;6.770;2023-06-14T12:12:56;2.20;;;1.02;;
21352;SDS011;10834;52.268;6.770;2023-06-14T12:15:44;4.30;;;1.10;;
21352;SDS011;10834;52.268;6.770;2023-06-14T12:18:36;5.47;;;1.30;;
21352;SDS011;10834;52.268;6.770;2023-06-14T12:21:24;1.25;;;1.15;;
21352;SDS011;10834;52.268;6.770;2023-06-14T12:24:13;5.72;;;1.50;;
21352;SDS011;10834;52.268;6.770;2023-06-14T12:27:00;3.97;;;1.20;;
21352;SDS011;10834;52.268;6.770;2023-06-14T12:29:58;2.42;;;1.23;;
21352;SDS011;10834;52.268;6.770;2023-06-14T12:32:44;3.80;;;1.42;;
21352;SDS011;10834;52.268;6.770;2023-06-14T12:35:31;4.18;;;1.40;;
21352;SDS011;10834;52.268;6.770;2023-06-14T12:38:17;3.50;;;1.42;;
21352;SDS011;10834;52.268;6.770;2023-06-14T12:41:03;2.28;;;0.95;;
21352;SDS011;10834;52.268;6.770;2023-06-14T12:43:49;3.30;;;1.25;;
21352;SDS011;10834;52.268;6.770;2023-06-14T12:46:36;1.40;;;1.30;;
21352;SDS011;10834;52.268;6.770;2023-06-14T12:49:23;2.92;;;1.25;;
21352;SDS011;10834;52.268;6.770;2023-06-14T12:52:09;9.00;;;1.40;;
21352;SDS011;10834;52.268;6.770;2023-06-14T12:54:55;1.40;;;1.30;;
21352;SDS011;10834;52.268;6.770;2023-06-14T12:57:41;2.78;;;1.45;;
21352;SDS011;10834;52.268;6.770;2023-06-14T13:00:27;0.98;;;0.98;;
21352;SDS011;10834;52.268;6.770;2023-06-14T13:03:13;1.60;;;1.10;;
21352;SDS011;10834;52.268;6.770;2023-06-14T13:05:59;2.63;;;1.38;;
21352;SDS011;10834;52.268;6.770;2023-06-14T13:08:46;2.20;;;1.50;;
21352;SDS011;10834;52.268;6.770;2023-06-14T13:11:32;7.18;;;2.05;;
21352;SDS011;10834;52.268;6.770;2023-06-14T13:14:19;3.05;;;1.52;;
21352;SDS011;10834;52.268;6.770;2023-06-14T13:17:05;5.45;;;1.48;;
21352;SDS011;10834;52.268;6.770;2023-06-14T13:19:51;1.50;;;1.30;;
21352;SDS011;10834;52.268;6.770;2023-06-14T13:22:37;2.78;;;1.30;;
21352;SDS011;10834;52.268;6.770;2023-06-14T13:25:24;1.40;;;1.30;;
21352;SDS011;10834;52.268;6.770;2023-06-14T13:28:11;2.63;;;1.33;;
21352;SDS011;10834;52.268;6.770;2023-06-14T13:30:57;2.88;;;1.20;;
21352;SDS011;10834;52.268;6.770;2023-06-14T13:33:43;0.77;;;0.77;;
21352;SDS011;10834;52.268;6.770;2023-06-14T13:36:29;3.67;;;2.20;;
21352;SDS011;10834;52.268;6.770;2023-06-14T13:39:15;3.97;;;1.25;;
21352;SDS011;10834;52.268;6.770;2023-06-14T13:42:01;1.10;;;1.00;;
21352;SDS011;10834;52.268;6.770;2023-06-14T13:44:48;2.40;;;1.15;;
21352;SDS011;10834;52.268;6.770;2023-06-14T13:47:34;1.65;;;1.13;;
21352;SDS011;10834;52.268;6.770;2023-06-14T13:50:20;1.17;;;1.15;;
21352;SDS011;10834;52.268;6.770;2023-06-14T13:53:06;3.70;;;1.30;;
21352;SDS011;10834;52.268;6.770;2023-06-14T13:55:52;3.88;;;1.40;;
21352;SDS011;10834;52.268;6.770;2023-06-14T13:58:39;1.50;;;1.40;;
21352;SDS011;10834;52.268;6.770;2023-06-14T14:01:25;4.30;;;0.93;;
21352;SDS011;10834;52.268;6.770;2023-06-14T14:04:14;1.88;;;1.45;;
21352;SDS011;10834;52.268;6.770;2023-06-14T14:07:00;2.05;;;1.20;;
21352;SDS011;10834;52.268;6.770;2023-06-14T14:09:47;3.40;;;1.10;;
21352;SDS011;10834;52.268;6.770;2023-06-14T14:12:33;1.55;;;1.40;;
21352;SDS011;10834;52.268;6.770;2023-06-14T14:15:19;1.92;;;1.23;;
21352;SDS011;10834;52.268;6.770;2023-06-14T14:18:05;1.88;;;1.35;;
21352;SDS011;10834;52.268;6.770;2023-06-14T14:20:52;1.50;;;1.40;;
21352;SDS011;10834;52.268;6.770;2023-06-14T14:23:38;3.22;;;1.00;;
21352;SDS011;10834;52.268;6.770;2023-06-14T14:26:25;1.77;;;1.20;;
21352;SDS011;10834;52.268;6.770;2023-06-14T14:29:11;1.48;;;1.25;;
21352;SDS011;10834;52.268;6.770;2023-06-14T14:31:57;2.70;;;1.38;;
21352;SDS011;10834;52.268;6.770;2023-06-14T14:34:43;2.33;;;1.00;;
21352;SDS011;10834;52.268;6.770;2023-06-14T14:37:30;3.22;;;1.25;;
21352;SDS011;10834;52.268;6.770;2023-06-14T14:40:16;1.23;;;1.15;;
21352;SDS011;10834;52.268;6.770;2023-06-14T14:43:02;2.33;;;1.27;;
21352;SDS011;10834;52.268;6.770;2023-06-14T14:45:48;2.28;;;1.10;;
21352;SDS011;10834;52.268;6.770;2023-06-14T14:48:34;2.75;;;1.20;;
21352;SDS011;10834;52.268;6.770;2023-06-14T14:51:20;1.20;;;1.10;;
21352;SDS011;10834;52.268;6.770;2023-06-14T14:54:06;3.30;;;1.40;;
21352;SDS011;10834;52.268;6.770;2023-06-14T14:56:52;1.25;;;1.00;;
21352;SDS011;10834;52.268;6.770;2023-06-14T14:59:38;1.90;;;1.00;;
21352;SDS011;10834;52.268;6.770;2023-06-14T15:02:24;2.00;;;1.02;;
21352;SDS011;10834;52.268;6.770;2023-06-14T15:05:10;4.00;;;1.55;;
21352;SDS011;10834;52.268;6.770;2023-06-14T15:07:56;1.38;;;1.27;;
21352;SDS011;10834;52.268;6.770;2023-06-14T15:10:42;3.63;;;1.40;;
21352;SDS011;10834;52.268;6.770;2023-06-14T15:13:29;1.17;;;1.08;;
21352;SDS011;10834;52.268;6.770;2023-06-14T15:16:15;1.30;;;1.15;;
21352;SDS011;10834;52.268;6.770;2023-06-14T15:19:01;1.23;;;1.13;;
21352;SDS011;10834;52.268;6.770;2023-06-14T15:21:47;3.83;;;1.55;;
21352;SDS011;10834;52.268;6.770;2023-06-14T15:24:33;5.88;;;1.55;;
21352;SDS011;10834;52.268;6.770;2023-06-14T15:27:19;4.68;;;1.45;;
21352;SDS011;10834;52.268;6.770;2023-06-14T15:30:06;2.35;;;1.35;;
21352;SDS011;10834;52.268;6.770;2023-06-14T15:32:52;2.63;;;1.50;;
21352;SDS011;10834;52.268;6.770;2023-06-14T15:35:38;6.45;;;1.80;;
21352;SDS011;10834;52.268;6.770;2023-06-14T15:38:25;2.67;;;1.45;;
21352;SDS011;10834;52.268;6.770;2023-06-14T15:41:11;1.73;;;1.35;;
21352;SDS011;10834;52.268;6.770;2023-06-14T15:43:57;3.28;;;1.38;;
21352;SDS011;10834;52.268;6.770;2023-06-14T15:46:43;1.65;;;1.48;;
21352;SDS011;10834;52.268;6.770;2023-06-14T15:49:30;3.00;;;1.30;;
21352;SDS011;10834;52.268;6.770;2023-06-14T15:52:16;1.15;;;1.08;;
21352;SDS011;10834;52.268;6.770;2023-06-14T15:55:02;2.70;;;1.45;;
21352;SDS011;10834;52.268;6.770;2023-06-14T15:57:48;2.90;;;1.50;;
21352;SDS011;10834;52.268;6.770;2023-06-14T16:00:34;1.60;;;1.50;;
21352;SDS011;10834;52.268;6.770;2023-06-14T16:03:21;2.35;;;1.00;;
21352;SDS011;10834;52.268;6.770;2023-06-14T16:06:07;1.40;;;1.30;;
21352;SDS011;10834;52.268;6.770;2023-06-14T16:08:53;1.20;;;1.08;;
21352;SDS011;10834;52.268;6.770;2023-06-14T16:11:39;1.63;;;1.48;;
21352;SDS011;10834;52.268;6.770;2023-06-14T16:14:25;2.90;;;1.52;;
21352;SDS011;10834;52.268;6.770;2023-06-14T16:17:11;2.25;;;1.20;;
21352;SDS011;10834;52.268;6.770;2023-06-14T16:19:57;1.13;;;1.13;;
21352;SDS011;10834;52.268;6.770;2023-06-14T16:22:43;4.18;;;1.80;;
21352;SDS011;10834;52.268;6.770;2023-06-14T16:25:29;2.72;;;1.30;;
21352;SDS011;10834;52.268;6.770;2023-06-14T16:28:15;1.50;;;1.40;;
21352;SDS011;10834;52.268;6.770;2023-06-14T16:31:02;1.63;;;1.52;;
21352;SDS011;10834;52.268;6.770;2023-06-14T16:33:48;2.72;;;2.00;;
21352;SDS011;10834;52.268;6.770;2023-06-14T16:36:40;2.53;;;1.70;;
21352;SDS011;10834;52.268;6.770;2023-06-14T16:39:26;1.65;;;1.50;;
21352;SDS011;10834;52.268;6.770;2023-06-14T16:42:12;2.00;;;1.73;;
21352;SDS011;10834;52.268;6.770;2023-06-14T16:44:58;6.05;;;2.05;;
21352;SDS011;10834;52.268;6.770;2023-06-14T16:47:45;4.22;;;1.50;;
21352;SDS011;10834;52.268;6.770;2023-06-14T16:50:31;4.05;;;1.95;;
21352;SDS011;10834;52.268;6.770;2023-06-14T16:53:18;2.22;;;1.98;;
21352;SDS011;10834;52.268;6.770;2023-06-14T16:56:04;1.27;;;1.17;;
21352;SDS011;10834;52.268;6.770;2023-06-14T16:58:55;5.03;;;1.77;;